Time;durP1;ratioP1;P1;durP2;ratioP2;P2;SDS_P1;SDS_P2;PMS_P1;PMS_P2;Temp;Humidity;BMP_temperature;BMP_pressure;BME280_temperature;BME280_humidity;BME280_pressure;Samples;Min_cycle;Max_cycle;Signal;HPM_P1;HPM_P2
2023/08/18 04:02:48;;;;;;;14.65;10.23;;;;;;;23.33;93.64;100590.53;5606430;31;78616;-56
2023/08/18 04:05:51;;;;;;;10.77;9.65;;;;;;;23.33;93.64;100590.53;5583963;32;33371;-57
2023/08/18 04:09:09;;;;;;;14.45;10.88;;;;;;;22.89;99.00;100601.72;5586047;31;33694;-56
2023/08/18 04:12:11;;;;;;;10.77;9.52;;;;;;;22.83;96.75;100598.47;5596717;31;33304;-56
2023/08/18 04:15:14;;;;;;;12.98;9.90;;;;;;;22.87;99.07;100598.53;5603506;31;34205;-56
2023/08/18 04:18:16;;;;;;;12.02;9.60;;;;;;;22.92;94.49;100604.53;5603572;31;33601;-56
2023/08/18 04:21:19;;;;;;;11.68;8.98;;;;;;;23.05;90.42;100594.28;5603281;31;33540;-56
2023/08/18 04:24:21;;;;;;;11.15;9.65;;;;;;;;;;5603299;31;34115;-56
2023/08/18 04:27:23;;;;;;;11.43;9.07;;;;;;;23.12;93.14;100604.56;5603607;31;33539;-56
2023/08/18 04:30:27;;;;;;;11.63;8.68;;;;;;;23.14;92.02;100592.09;5603432;31;32654;-56
2023/08/18 04:33:29;;;;;;;9.93;8.95;;;;;;;23.20;91.73;100598.88;5603561;31;33549;-57
2023/08/18 04:36:33;;;;;;;12.80;8.75;;;;;;;23.29;89.06;100601.41;5603039;31;33121;-56
2023/08/18 04:39:35;;;;;;;10.15;8.82;;;;;;;23.34;95.02;100606.56;5603281;31;33323;-56
2023/08/18 04:42:39;;;;;;;11.65;9.27;;;;;;;23.44;92.94;100605.19;5603231;31;34406;-56
2023/08/18 04:45:42;;;;;;;10.65;8.43;;;;;;;23.48;91.96;100614.28;5603014;31;33503;-56
2023/08/18 04:48:45;;;;;;;8.75;7.90;;;;;;;23.52;94.10;100609.66;5602939;31;34350;-57
2023/08/18 04:51:47;;;;;;;9.75;8.52;;;;;;;23.57;94.39;100614.03;5603003;31;34355;-56
2023/08/18 04:54:51;;;;;;;9.60;8.18;;;;;;;23.62;88.87;100621.97;5603175;31;33402;-56
2023/08/18 04:57:53;;;;;;;9.88;8.65;;;;;;;23.56;91.08;100618.72;5603098;31;33551;-57
2023/08/18 05:00:59;;;;;;;9.70;8.32;;;;;;;23.67;93.46;100625.19;5602944;31;34335;-57
2023/08/18 05:04:01;;;;;;;15.23;9.10;;;;;;;23.67;97.71;100619.72;5602653;31;33371;-56
2023/08/18 05:07:04;;;;;;;14.55;9.48;;;;;;;23.65;91.33;100629.44;5602822;31;34264;-57
2023/08/18 05:10:07;;;;;;;11.43;9.13;;;;;;;23.64;93.52;100625.91;5603119;31;33575;-57
2023/08/18 05:13:09;;;;;;;9.80;8.80;;;;;;;23.58;88.85;100629.31;5594378;31;34769;-56
2023/08/18 05:16:11;;;;;;;11.80;9.38;;;;;;;23.68;91.88;100623.28;5586089;31;33607;-56
2023/08/18 05:19:14;;;;;;;11.52;8.95;;;;;;;23.63;90.81;100631.75;5589983;31;33669;-57
2023/08/18 05:22:16;;;;;;;10.45;8.98;;;;;;;23.68;90.65;100634.22;5589418;31;34377;-56
2023/08/18 05:25:19;;;;;;;11.15;8.98;;;;;;;23.74;91.78;100640.16;5589190;31;34395;-56
2023/08/18 05:28:27;;;;;;;10.40;9.23;;;;;;;23.71;88.87;100632.69;5589242;31;33891;-56
2023/08/18 05:31:30;;;;;;;10.10;8.30;;;;;;;23.80;92.02;100644.97;5589379;31;33802;-56
2023/08/18 05:34:32;;;;;;;10.90;8.57;;;;;;;23.88;89.97;100643.97;5589466;31;33754;-56
2023/08/18 05:37:35;;;;;;;10.45;8.23;;;;;;;23.83;85.38;100643.47;5589634;31;34344;-56
2023/08/18 05:40:44;;;;;;;8.93;7.95;;;;;;;23.90;88.44;100651.81;5589348;31;33577;-56
2023/08/18 05:43:47;;;;;;;12.02;9.48;;;;;;;23.86;87.16;100649.00;5589379;31;33626;-56
2023/08/18 05:46:49;;;;;;;12.63;8.48;;;;;;;23.96;86.91;100653.09;5589278;31;34275;-56
2023/08/18 05:49:52;;;;;;;13.93;9.15;;;;;;;23.89;88.46;100655.72;5589090;31;33721;-56
2023/08/18 05:52:54;;;;;;;14.10;10.80;;;;;;;23.89;87.07;100653.75;5589347;31;33614;-56
2023/08/18 05:55:57;;;;;;;11.50;10.15;;;;;;;23.95;87.43;100658.94;5589076;31;33550;-57
2023/08/18 05:58:59;;;;;;;14.57;9.60;;;;;;;23.91;85.28;100656.16;5589052;31;34370;-57
2023/08/18 06:02:03;;;;;;;13.45;10.15;;;;;;;24.00;88.06;100653.16;5560776;31;34086;-56
2023/08/18 06:05:07;;;;;;;14.95;9.40;;;;;;;24.09;88.36;100646.28;5553949;32;34231;-57
2023/08/18 06:08:09;;;;;;;12.82;10.18;;;;;;;24.24;85.50;100649.25;5569244;32;33739;-56
2023/08/18 06:11:12;;;;;;;11.38;9.02;;;;;;;24.28;88.58;100642.69;5559795;32;33617;-57
2023/08/18 06:14:14;;;;;;;9.90;8.35;;;;;;;24.29;86.00;100640.75;5561908;32;34386;-56
2023/08/18 06:17:16;;;;;;;12.43;9.02;;;;;;;24.44;89.57;100639.06;5569174;32;33507;-56
2023/08/18 06:20:19;;;;;;;12.70;9.27;;;;;;;24.44;82.76;100639.84;5569012;32;34212;-56
2023/08/18 06:23:21;;;;;;;13.20;9.23;;;;;;;24.43;80.09;100631.97;5560046;32;33516;-57
2023/08/18 06:26:24;;;;;;;14.60;9.02;;;;;;;24.42;80.24;100631.19;5568782;32;34212;-56
2023/08/18 06:29:26;;;;;;;15.82;9.82;;;;;;;24.47;79.72;100643.78;5566396;32;33929;-56
2023/08/18 06:32:29;;;;;;;10.52;9.50;;;;;;;24.43;80.59;100635.50;5568629;32;34252;-56
2023/08/18 06:35:32;;;;;;;10.77;7.82;;;;;;;24.43;82.56;100641.00;5550982;32;33859;-57
2023/08/18 06:38:34;;;;;;;11.25;9.45;;;;;;;24.56;82.64;100636.87;5549813;32;34371;-57
2023/08/18 06:41:42;;;;;;;12.32;8.85;;;;;;;24.64;82.30;100639.75;5549730;32;33650;-56
2023/08/18 06:44:47;;;;;;;9.95;8.70;;;;;;;24.70;77.30;100641.00;5549283;32;33610;-56
2023/08/18 06:47:50;;;;;;;10.93;8.45;;;;;;;24.75;77.62;100641.47;5566973;32;33667;-56
2023/08/18 06:50:52;;;;;;;11.98;8.57;;;;;;;24.80;76.62;100649.38;5569111;32;33618;-57
2023/08/18 06:53:55;;;;;;;9.52;8.10;;;;;;;24.82;75.14;100651.75;5558939;32;33679;-56
2023/08/18 06:56:58;;;;;;;12.48;9.00;;;;;;;24.88;79.50;100654.97;5552321;32;34156;-56
2023/08/18 07:00:00;;;;;;;9.65;8.05;;;;;;;24.90;78.01;100647.16;5549287;32;34335;-56
2023/08/18 07:03:03;;;;;;;13.05;8.70;;;;;;;24.95;78.72;100663.28;5549508;32;34269;-56
2023/08/18 07:06:05;;;;;;;11.75;9.38;;;;;;;25.04;79.81;100661.84;5549180;32;33604;-56
2023/08/18 07:09:09;;;;;;;10.63;8.25;;;;;;;25.03;78.09;100663.03;5549703;32;34303;-56
2023/08/18 07:12:12;;;;;;;13.13;8.98;;;;;;;25.07;78.74;100665.81;5549485;32;34356;-56
2023/08/18 07:15:14;;;;;;;10.18;9.02;;;;;;;25.11;77.87;100660.37;5549645;32;34308;-56
2023/08/18 07:18:17;;;;;;;10.73;8.45;;;;;;;25.21;80.62;100666.03;5549291;32;33716;-56
2023/08/18 07:21:19;;;;;;;10.88;8.85;;;;;;;25.22;78.78;100659.38;5548972;32;33614;-57
2023/08/18 07:24:22;;;;;;;11.40;8.80;;;;;;;25.19;77.41;100657.37;5548946;32;33453;-56
2023/08/18 07:27:24;;;;;;;10.18;9.13;;;;;;;25.16;75.73;100662.81;5549126;32;34205;-56
2023/08/18 07:30:27;;;;;;;10.98;8.80;;;;;;;25.05;76.44;100668.13;5548831;32;34311;-56
2023/08/18 07:33:30;;;;;;;11.45;8.77;;;;;;;25.01;77.62;100673.56;5549122;32;33750;-56
2023/08/18 07:36:33;;;;;;;9.80;8.80;;;;;;;25.02;77.27;100672.41;5548516;32;33691;-57
2023/08/18 07:39:35;;;;;;;12.98;9.70;;;;;;;25.06;78.42;100675.19;5549252;32;33641;-56
2023/08/18 07:42:39;;;;;;;10.85;9.23;;;;;;;25.12;77.23;100672.94;5548866;32;33695;-57
2023/08/18 07:45:41;;;;;;;9.82;8.50;;;;;;;25.16;78.07;100676.53;5549185;32;33857;-57
2023/08/18 07:48:44;;;;;;;11.85;8.38;;;;;;;25.19;77.97;100667.56;5548511;32;33567;-56
2023/08/18 07:51:47;;;;;;;14.05;8.43;;;;;;;25.20;79.26;100675.44;5549010;32;33625;-57
2023/08/18 07:54:50;;;;;;;14.15;8.70;;;;;;;25.31;75.85;100683.78;5548813;32;33301;-56
2023/08/18 07:57:52;;;;;;;10.35;8.73;;;;;;;25.30;75.48;100693.19;5548953;32;34380;-57
2023/08/18 08:00:56;;;;;;;15.55;9.43;;;;;;;25.28;79.25;100695.50;5552591;32;33847;-56
2023/08/18 08:03:59;;;;;;;14.25;10.40;;;;;;;25.21;75.92;100700.91;5566615;32;33685;-57
2023/08/18 08:07:04;;;;;;;10.13;9.13;;;;;;;25.19;77.75;100701.25;5556058;32;33690;-56
2023/08/18 08:10:07;;;;;;;13.05;10.00;;;;;;;25.18;78.55;100699.69;5548741;32;34352;-56
2023/08/18 08:13:09;;;;;;;12.90;9.10;;;;;;;25.24;77.57;100708.41;5548361;32;34293;-56
2023/08/18 08:16:12;;;;;;;13.60;9.23;;;;;;;25.18;82.06;100709.88;5549295;32;33673;-57
2023/08/18 08:19:14;;;;;;;14.70;9.90;;;;;;;25.16;80.85;100706.69;5567780;32;34308;-56
2023/08/18 08:22:19;;;;;;;13.05;9.48;;;;;;;25.15;80.24;100713.34;5558057;32;34271;-56
2023/08/18 08:25:22;;;;;;;10.23;9.23;;;;;;;25.20;80.82;100713.84;5548317;32;33671;-56
2023/08/18 08:28:24;;;;;;;12.80;9.88;;;;;;;25.20;81.45;100719.31;5548044;32;33560;-57
2023/08/18 08:31:29;;;;;;;12.65;9.43;;;;;;;25.23;81.50;100726.81;5548299;32;34263;-57
2023/08/18 08:34:32;;;;;;;12.13;10.30;;;;;;;25.17;78.56;100722.03;5561731;32;34369;-57
2023/08/18 08:37:34;;;;;;;10.57;9.48;;;;;;;25.20;78.65;100718.50;5567523;32;33506;-56
2023/08/18 08:40:41;;;;;;;11.88;10.38;;;;;;;25.25;77.47;100724.47;5567523;32;33920;-56
2023/08/18 08:43:43;;;;;;;14.25;10.48;;;;;;;25.35;79.68;100727.75;5567560;32;33649;-56
2023/08/18 08:46:47;;;;;;;13.73;10.05;;;;;;;25.47;78.23;100724.75;5567329;32;34389;-56
2023/08/18 08:49:58;;;;;;;12.25;10.00;;;;;;;25.53;77.59;100720.53;5569994;32;33757;-57
2023/08/18 08:53:01;;;;;;;10.35;9.25;;;;;;;25.59;78.27;100712.72;5570170;32;33680;-56
2023/08/18 08:56:07;;;;;;;14.23;9.77;;;;;;;25.70;76.90;100717.19;5570026;32;33716;-56
2023/08/18 08:59:11;;;;;;;11.25;10.13;;;;;;;25.69;76.15;100709.31;5570118;32;33668;-56
2023/08/18 09:02:22;;;;;;;12.10;9.90;;;;;;;25.72;73.44;100708.56;5569749;32;33682;-56
2023/08/18 09:05:28;;;;;;;14.43;10.27;;;;;;;25.75;76.68;100700.38;5570024;32;33613;-57
2023/08/18 09:08:30;;;;;;;15.00;9.98;;;;;;;25.72;74.69;100706.62;5569836;32;33772;-56
2023/08/18 09:11:59;;;;;;;15.43;10.07;;;;;;;25.67;75.56;100700.69;5570089;32;33446;-57
2023/08/18 09:15:03;;;;;;;10.75;9.70;;;;;;;25.67;74.32;100704.22;5567583;31;33377;-56
2023/08/18 09:18:06;;;;;;;11.02;9.85;;;;;;;25.73;74.74;100693.69;5562795;32;33806;-56
2023/08/18 09:21:08;;;;;;;11.70;10.57;;;;;;;25.71;74.25;100690.53;5549337;32;33711;-56
2023/08/18 09:24:10;;;;;;;11.98;10.18;;;;;;;25.66;75.53;100688.09;5549471;32;33608;-56
2023/08/18 09:27:14;;;;;;;12.00;10.02;;;;;;;25.77;74.72;100684.31;5550235;32;34346;-57
2023/08/18 09:30:17;;;;;;;17.83;10.82;;;;;;;25.83;73.73;100689.50;5550213;32;33634;-56
2023/08/18 09:33:23;;;;;;;12.63;10.50;;;;;;;25.75;73.94;100686.66;5550082;32;33798;-56
2023/08/18 09:36:31;;;;;;;13.93;9.70;;;;;;;25.79;75.44;100686.69;5550157;32;34426;-56
2023/08/18 09:39:33;;;;;;;12.93;11.07;;;;;;;25.81;76.64;100689.09;5550189;32;33975;-57
2023/08/18 09:42:41;;;;;;;11.52;10.23;;;;;;;25.81;75.82;100689.88;5549959;32;33696;-56
2023/08/18 09:45:44;;;;;;;12.77;9.73;;;;;;;25.84;74.53;100689.13;5550335;32;34348;-57
2023/08/18 09:48:49;;;;;;;12.07;9.93;;;;;;;25.94;74.17;100693.16;5549778;32;34260;-56
2023/08/18 09:52:01;;;;;;;11.52;10.32;;;;;;;25.99;73.45;100681.81;5549517;32;33885;-56
2023/08/18 09:55:13;;;;;;;12.98;9.50;;;;;;;25.96;72.41;100688.88;5550036;32;34265;-56
2023/08/18 09:58:15;;;;;;;10.55;9.23;;;;;;;25.97;74.04;100692.41;5549462;32;33622;-57
2023/08/18 10:01:18;;;;;;;10.82;9.70;;;;;;;25.96;72.97;100688.06;5549433;32;33757;-57
2023/08/18 10:04:24;;;;;;;12.57;9.82;;;;;;;26.14;72.86;100683.53;5549454;32;33668;-57
2023/08/18 10:07:27;;;;;;;12.45;10.23;;;;;;;26.19;74.27;100683.19;5549685;32;33612;-56
2023/08/18 10:10:30;;;;;;;11.35;10.15;;;;;;;26.17;73.43;100685.53;5549483;32;33653;-57
2023/08/18 10:13:33;;;;;;;13.52;10.32;;;;;;;26.19;73.60;100676.88;5549540;32;33514;-57
2023/08/18 10:16:37;;;;;;;12.55;9.77;;;;;;;26.19;73.29;100676.88;5549692;32;33491;-57
2023/08/18 10:19:51;;;;;;;12.37;9.75;;;;;;;26.22;73.24;100671.44;5549950;32;34386;-56
2023/08/18 10:22:54;;;;;;;10.00;9.00;;;;;;;26.30;73.39;100679.75;5549946;32;33723;-57
2023/08/18 10:25:57;;;;;;;12.30;9.65;;;;;;;26.35;70.52;100674.69;5549660;32;34299;-57
2023/08/18 10:29:17;;;;;;;12.57;11.27;;;;;;;26.36;68.84;100675.50;5549667;32;33664;-57
2023/08/18 10:32:36;;;;;;;10.60;9.20;;;;;;;26.28;69.61;100673.84;5549544;32;33669;-57
2023/08/18 10:35:41;;;;;;;12.10;10.73;;;;;;;26.40;69.92;100682.59;5550023;32;34394;-56
2023/08/18 10:38:43;;;;;;;11.82;10.35;;;;;;;26.34;71.69;100672.31;5549606;32;33680;-56
2023/08/18 10:42:04;;;;;;;11.40;9.68;;;;;;;26.35;72.64;100677.41;5549854;32;33727;-56
2023/08/18 10:45:23;;;;;;;11.63;10.45;;;;;;;26.41;72.16;100672.38;5549443;32;34117;-56
2023/08/18 10:48:33;;;;;;;12.40;11.02;;;;;;;26.45;68.37;100671.22;5549274;32;34416;-56
2023/08/18 10:51:35;;;;;;;14.27;11.38;;;;;;;26.47;70.04;100668.09;5549291;32;33745;-56
2023/08/18 10:54:37;;;;;;;11.73;10.48;;;;;;;26.36;70.54;100661.75;5549338;32;33699;-57
2023/08/18 10:57:40;;;;;;;10.25;9.25;;;;;;;26.45;70.20;100662.19;5549752;32;33764;-56
2023/08/18 11:00:44;;;;;;;10.00;8.27;;;;;;;26.50;70.54;100667.37;5549218;32;34370;-57
2023/08/18 11:03:46;;;;;;;8.82;7.95;;;;;;;26.55;69.10;100669.75;5549672;32;33480;-56
2023/08/18 11:06:50;;;;;;;8.43;7.62;;;;;;;26.60;67.73;100658.41;5549491;32;33625;-56
2023/08/18 11:09:52;;;;;;;9.75;7.68;;;;;;;26.73;65.20;100660.84;5548611;32;33672;-57
2023/08/18 11:12:57;;;;;;;10.23;8.50;;;;;;;26.75;65.00;100658.50;5549577;32;34434;-57
2023/08/18 11:15:59;;;;;;;9.15;7.60;;;;;;;26.67;66.76;100660.41;5549380;32;33776;-56
2023/08/18 11:19:04;;;;;;;9.30;7.80;;;;;;;26.67;66.44;100658.44;5549351;32;34398;-57
2023/08/18 11:22:07;;;;;;;8.70;7.80;;;;;;;26.69;66.10;100656.12;5549278;32;33634;-57
2023/08/18 11:25:14;;;;;;;10.88;7.55;;;;;;;26.77;66.47;100658.91;5549440;32;33614;-57
2023/08/18 11:28:17;;;;;;;10.95;7.62;;;;;;;26.77;67.50;100654.19;5549117;32;34487;-57
2023/08/18 11:31:20;;;;;;;9.52;7.40;;;;;;;26.77;65.46;100656.94;5549152;32;33607;-57
2023/08/18 11:34:23;;;;;;;9.95;7.47;;;;;;;26.84;65.72;100647.94;5549178;32;34401;-56
2023/08/18 11:37:28;;;;;;;10.57;7.07;;;;;;;26.86;64.81;100653.87;5554339;31;33902;-56
2023/08/18 11:40:36;;;;;;;12.73;8.48;;;;;;;26.90;66.55;100649.16;5576740;31;33790;-56
2023/08/18 11:43:39;;;;;;;9.88;7.90;;;;;;;26.93;63.51;100648.41;5575772;31;34132;-57
2023/08/18 11:46:41;;;;;;;8.73;7.82;;;;;;;26.93;65.12;100651.16;5577392;31;33693;-57
2023/08/18 11:49:47;;;;;;;11.77;7.62;;;;;;;26.91;67.35;100647.97;5577831;31;33716;-57
2023/08/18 11:52:52;;;;;;;8.13;7.32;;;;;;;26.96;65.72;100649.59;5576530;31;33654;-57
2023/08/18 11:55:56;;;;;;;8.38;7.40;;;;;;;26.99;66.44;100644.09;5574667;31;34429;-57
2023/08/18 11:58:59;;;;;;;10.32;7.78;;;;;;;27.08;64.50;100644.53;5576749;31;33747;-57
2023/08/18 12:02:06;;;;;;;10.18;7.72;;;;;;;27.09;64.20;100634.31;5566590;31;34242;-56
2023/08/18 12:05:18;;;;;;;8.75;7.82;;;;;;;27.07;64.09;100633.91;5574569;31;34328;-57
2023/08/18 12:08:20;;;;;;;12.10;7.70;;;;;;;27.09;63.74;100635.12;5575525;31;33821;-56
2023/08/18 12:11:23;;;;;;;8.75;7.75;;;;;;;27.09;63.70;100626.84;5574584;31;33657;-57
2023/08/18 12:14:25;;;;;;;9.82;7.95;;;;;;;27.12;64.87;100623.34;5573929;31;33820;-57
2023/08/18 12:17:28;;;;;;;8.80;7.97;;;;;;;27.15;64.23;100610.78;5574077;31;33585;-57
2023/08/18 12:20:31;;;;;;;8.98;8.07;;;;;;;27.19;64.69;100610.81;5577621;31;33673;-57
2023/08/18 12:23:34;;;;;;;8.93;7.62;;;;;;;27.27;64.16;100609.66;5578353;31;34024;-56
2023/08/18 12:26:37;;;;;;;8.45;7.55;;;;;;;27.33;62.77;100605.34;5579463;31;33737;-57
2023/08/18 12:29:39;;;;;;;7.22;6.47;;;;;;;27.36;65.27;100610.06;5578589;31;33598;-57
2023/08/18 12:32:48;;;;;;;12.93;7.28;;;;;;;27.38;60.80;100614.03;5574323;31;33691;-57
2023/08/18 12:35:50;;;;;;;14.95;6.75;;;;;;;27.44;63.52;100611.66;5575084;31;34295;-58
2023/08/18 12:38:53;;;;;;;8.55;6.60;;;;;;;27.49;60.99;100618.75;5575028;31;33682;-57
2023/08/18 12:41:56;;;;;;;9.40;6.37;;;;;;;27.43;62.10;100618.34;5573398;31;33725;-57
2023/08/18 12:44:58;;;;;;;11.50;7.15;;;;;;;27.44;60.82;100617.16;5552096;31;33457;-57
2023/08/18 12:48:02;;;;;;;8.45;6.65;;;;;;;27.40;61.90;100625.41;5550802;32;34399;-57
2023/08/18 12:51:04;;;;;;;8.13;7.32;;;;;;;27.44;62.63;100622.66;5571615;31;33677;-56
2023/08/18 12:54:07;;;;;;;10.00;6.80;;;;;;;27.42;65.81;100636.06;5575587;31;34055;-57
2023/08/18 12:57:09;;;;;;;38.58;33.20;;;;;;;27.45;62.81;100632.53;5570063;32;34415;-57
2023/08/18 13:00:12;;;;;;;13.57;8.10;;;;;;;27.42;62.13;100627.78;5571028;31;33352;-57
2023/08/18 13:03:14;;;;;;;10.88;7.30;;;;;;;27.49;64.15;100630.56;5569593;32;33711;-57
2023/08/18 13:06:16;;;;;;;9.35;8.02;;;;;;;27.58;66.10;100622.72;5570150;32;33703;-57
2023/08/18 13:09:18;;;;;;;10.98;7.87;;;;;;;27.60;63.65;100620.34;5577539;31;32263;-57
2023/08/18 13:12:21;;;;;;;8.55;7.20;;;;;;;27.61;65.68;100615.63;5570641;31;34388;-57
2023/08/18 13:15:26;;;;;;;8.48;7.35;;;;;;;27.58;65.56;100610.91;5566451;31;34401;-57
2023/08/18 13:18:30;;;;;;;11.85;7.82;;;;;;;27.55;63.83;100598.72;5550684;32;34326;-57
2023/08/18 13:21:33;;;;;;;10.05;8.00;;;;;;;27.50;64.57;100601.06;5550824;32;33789;-57
2023/08/18 13:24:35;;;;;;;8.93;7.28;;;;;;;27.55;65.67;100595.97;5550370;32;33855;-56
2023/08/18 13:27:39;;;;;;;8.57;7.32;;;;;;;27.53;64.05;100601.06;5550635;32;34315;-57
2023/08/18 13:30:41;;;;;;;8.18;6.87;;;;;;;27.59;64.14;100604.22;5550150;32;33711;-57
2023/08/18 13:33:44;;;;;;;7.70;6.93;;;;;;;27.54;64.90;100607.34;5549866;32;33820;-57
2023/08/18 13:36:47;;;;;;;8.45;6.80;;;;;;;27.46;64.45;100609.31;5550231;32;34287;-57
2023/08/18 13:39:49;;;;;;;7.45;6.57;;;;;;;27.51;62.08;100608.91;5550429;32;34369;-57
2023/08/18 13:42:53;;;;;;;36.40;8.40;;;;;;;27.43;60.85;100593.56;5550032;32;33621;-57
2023/08/18 13:45:57;;;;;;;9.70;6.55;;;;;;;27.41;64.59;100604.16;5550008;32;33673;-57
2023/08/18 13:48:59;;;;;;;8.90;6.65;;;;;;;27.37;65.01;100600.63;5550227;32;34298;-57
2023/08/18 13:52:02;;;;;;;11.65;6.60;;;;;;;27.33;63.39;100597.09;5550224;32;33643;-57
2023/08/18 13:55:05;;;;;;;9.98;6.82;;;;;;;27.35;66.00;100601.03;5550251;32;34298;-57
2023/08/18 13:58:07;;;;;;;14.57;7.12;;;;;;;27.35;65.76;100608.47;5550084;32;33718;-56
2023/08/18 14:01:09;;;;;;;9.98;6.90;;;;;;;27.31;64.21;100610.44;5549994;32;34450;-57
2023/08/18 14:04:12;;;;;;;8.30;7.22;;;;;;;27.27;63.96;100613.19;5550007;32;34535;-57
2023/08/18 14:07:14;;;;;;;8.75;7.30;;;;;;;27.24;65.65;100618.69;5550150;32;33635;-57
2023/08/18 14:10:17;;;;;;;14.05;6.90;;;;;;;27.16;64.44;100615.91;5550009;32;33706;-57
2023/08/18 14:13:19;;;;;;;11.85;7.10;;;;;;;27.14;64.30;100620.22;5549980;32;33775;-57
2023/08/18 14:16:21;;;;;;;14.60;7.15;;;;;;;27.12;66.55;100625.31;5549976;32;33617;-56
2023/08/18 14:19:24;;;;;;;9.70;6.68;;;;;;;27.10;65.75;100622.12;5549781;32;33779;-57
2023/08/18 14:22:29;;;;;;;11.25;7.25;;;;;;;27.11;64.35;100621.72;5549763;32;34410;-56
2023/08/18 14:25:32;;;;;;;12.52;6.32;;;;;;;27.06;67.23;100624.88;5549680;32;33764;-57
2023/08/18 14:28:37;;;;;;;12.35;7.22;;;;;;;27.00;65.28;100631.13;5549758;32;34395;-57
2023/08/18 14:31:39;;;;;;;15.25;8.23;;;;;;;26.96;67.04;100625.62;5549885;32;34430;-57
2023/08/18 14:34:45;;;;;;;18.62;8.70;;;;;;;26.88;66.71;100635.00;5549708;32;34436;-57
2023/08/18 14:37:47;;;;;;;14.45;8.88;;;;;;;26.82;68.14;100639.28;5549631;32;33769;-56
2023/08/18 14:40:50;;;;;;;10.90;7.00;;;;;;;26.79;68.63;100645.53;5549616;32;34015;-56
2023/08/18 14:43:52;;;;;;;11.38;6.75;;;;;;;26.72;65.49;100640.78;5549634;32;33742;-56
2023/08/18 14:46:55;;;;;;;24.70;7.50;;;;;;;26.68;66.23;100642.75;5548601;32;33811;-56
